sensor_id;sensor_type;location;lat;lon;timestamp;P1;durP1;ratioP1;P2;durP2;ratioP2
3443;SDS011;1736;52.068;6.968;2022-09-09T00:01:49;2.33;;;2.13;;
3443;SDS011;1736;52.068;6.968;2022-09-09T00:04:23;4.57;;;2.17;;
3443;SDS011;1736;52.068;6.968;2022-09-09T00:06:56;2.70;;;2.00;;
3443;SDS011;1736;52.068;6.968;2022-09-09T00:09:29;2.00;;;1.90;;
3443;SDS011;1736;52.068;6.968;2022-09-09T00:11:58;2.37;;;2.17;;
3443;SDS011;1736;52.068;6.968;2022-09-09T00:14:32;4.03;;;2.10;;
3443;SDS011;1736;52.068;6.968;2022-09-09T00:17:04;2.47;;;2.03;;
3443;SDS011;1736;52.068;6.968;2022-09-09T00:19:37;2.00;;;1.90;;
3443;SDS011;1736;52.068;6.968;2022-09-09T00:22:16;9.00;;;2.57;;
3443;SDS011;1736;52.068;6.968;2022-09-09T00:24:46;3.30;;;2.50;;
3443;SDS011;1736;52.068;6.968;2022-09-09T00:27:20;2.60;;;2.40;;
3443;SDS011;1736;52.068;6.968;2022-09-09T00:29:54;3.60;;;2.60;;
3443;SDS011;1736;52.068;6.968;2022-09-09T00:32:27;2.70;;;2.40;;
3443;SDS011;1736;52.068;6.968;2022-09-09T00:34:56;3.50;;;3.20;;
3443;SDS011;1736;52.068;6.968;2022-09-09T00:37:26;2.90;;;2.70;;
3443;SDS011;1736;52.068;6.968;2022-09-09T00:39:59;3.20;;;2.90;;
3443;SDS011;1736;52.068;6.968;2022-09-09T00:42:33;3.33;;;2.93;;
3443;SDS011;1736;52.068;6.968;2022-09-09T00:45:10;5.93;;;3.07;;
3443;SDS011;1736;52.068;6.968;2022-09-09T00:47:52;6.83;;;3.20;;
3443;SDS011;1736;52.068;6.968;2022-09-09T00:50:27;2.73;;;2.53;;
3443;SDS011;1736;52.068;6.968;2022-09-09T00:53:12;3.43;;;2.70;;
3443;SDS011;1736;52.068;6.968;2022-09-09T00:55:51;5.70;;;3.23;;
3443;SDS011;1736;52.068;6.968;2022-09-09T00:58:25;3.43;;;3.03;;
3443;SDS011;1736;52.068;6.968;2022-09-09T01:00:54;4.33;;;2.87;;
3443;SDS011;1736;52.068;6.968;2022-09-09T01:03:26;4.17;;;2.77;;
3443;SDS011;1736;52.068;6.968;2022-09-09T01:06:11;2.80;;;2.60;;
3443;SDS011;1736;52.068;6.968;2022-09-09T01:11:38;4.03;;;3.03;;
3443;SDS011;1736;52.068;6.968;2022-09-09T01:14:16;2.50;;;2.30;;
3443;SDS011;1736;52.068;6.968;2022-09-09T01:16:53;3.00;;;2.33;;
3443;SDS011;1736;52.068;6.968;2022-09-09T01:19:24;4.23;;;2.60;;
3443;SDS011;1736;52.068;6.968;2022-09-09T01:22:01;6.80;;;2.63;;
3443;SDS011;1736;52.068;6.968;2022-09-09T01:24:40;2.60;;;2.40;;
3443;SDS011;1736;52.068;6.968;2022-09-09T01:27:14;2.73;;;2.40;;
3443;SDS011;1736;52.068;6.968;2022-09-09T01:29:43;2.23;;;2.13;;
3443;SDS011;1736;52.068;6.968;2022-09-09T01:35:06;2.70;;;2.47;;
3443;SDS011;1736;52.068;6.968;2022-09-09T01:37:37;3.40;;;2.37;;
3443;SDS011;1736;52.068;6.968;2022-09-09T01:40:04;3.10;;;2.90;;
3443;SDS011;1736;52.068;6.968;2022-09-09T01:42:32;4.10;;;2.77;;
3443;SDS011;1736;52.068;6.968;2022-09-09T01:44:59;3.60;;;2.90;;
3443;SDS011;1736;52.068;6.968;2022-09-09T01:47:25;3.10;;;2.80;;
3443;SDS011;1736;52.068;6.968;2022-09-09T01:49:52;3.10;;;2.90;;
3443;SDS011;1736;52.068;6.968;2022-09-09T01:52:19;5.17;;;3.40;;
3443;SDS011;1736;52.068;6.968;2022-09-09T01:54:45;3.57;;;3.07;;
3443;SDS011;1736;52.068;6.968;2022-09-09T01:57:14;4.07;;;3.67;;
3443;SDS011;1736;52.068;6.968;2022-09-09T02:02:35;5.77;;;3.60;;
3443;SDS011;1736;52.068;6.968;2022-09-09T02:05:07;7.10;;;4.30;;
3443;SDS011;1736;52.068;6.968;2022-09-09T02:07:44;6.60;;;3.67;;
3443;SDS011;1736;52.068;6.968;2022-09-09T02:10:16;5.63;;;4.30;;
3443;SDS011;1736;52.068;6.968;2022-09-09T02:12:51;4.37;;;3.57;;
3443;SDS011;1736;52.068;6.968;2022-09-09T02:15:23;5.30;;;3.50;;
3443;SDS011;1736;52.068;6.968;2022-09-09T02:17:57;8.83;;;3.73;;
3443;SDS011;1736;52.068;6.968;2022-09-09T02:20:27;3.80;;;3.50;;
3443;SDS011;1736;52.068;6.968;2022-09-09T02:22:58;6.33;;;3.67;;
3443;SDS011;1736;52.068;6.968;2022-09-09T02:25:27;6.40;;;3.67;;
3443;SDS011;1736;52.068;6.968;2022-09-09T02:27:55;3.80;;;3.30;;
3443;SDS011;1736;52.068;6.968;2022-09-09T02:30:25;4.67;;;3.60;;
3443;SDS011;1736;52.068;6.968;2022-09-09T02:32:55;4.60;;;3.30;;
3443;SDS011;1736;52.068;6.968;2022-09-09T02:35:24;7.10;;;3.50;;
3443;SDS011;1736;52.068;6.968;2022-09-09T02:37:53;5.93;;;3.80;;
3443;SDS011;1736;52.068;6.968;2022-09-09T02:40:23;5.23;;;3.70;;
3443;SDS011;1736;52.068;6.968;2022-09-09T02:42:50;6.17;;;4.13;;
3443;SDS011;1736;52.068;6.968;2022-09-09T02:45:17;8.20;;;4.00;;
3443;SDS011;1736;52.068;6.968;2022-09-09T02:47:50;10.80;;;4.60;;
3443;SDS011;1736;52.068;6.968;2022-09-09T02:50:25;5.43;;;4.00;;
3443;SDS011;1736;52.068;6.968;2022-09-09T02:52:59;4.70;;;4.30;;
3443;SDS011;1736;52.068;6.968;2022-09-09T02:55:37;7.10;;;4.57;;
3443;SDS011;1736;52.068;6.968;2022-09-09T02:58:08;6.93;;;5.20;;
3443;SDS011;1736;52.068;6.968;2022-09-09T03:00:37;6.60;;;5.77;;
3443;SDS011;1736;52.068;6.968;2022-09-09T03:03:07;11.67;;;7.30;;
3443;SDS011;1736;52.068;6.968;2022-09-09T03:05:34;9.17;;;7.17;;
3443;SDS011;1736;52.068;6.968;2022-09-09T03:08:01;11.80;;;7.77;;
3443;SDS011;1736;52.068;6.968;2022-09-09T03:10:28;9.13;;;7.17;;
3443;SDS011;1736;52.068;6.968;2022-09-09T03:12:55;9.37;;;7.70;;
3443;SDS011;1736;52.068;6.968;2022-09-09T03:15:21;8.90;;;8.00;;
3443;SDS011;1736;52.068;6.968;2022-09-09T03:17:48;13.83;;;8.20;;
3443;SDS011;1736;52.068;6.968;2022-09-09T03:20:16;14.47;;;9.10;;
3443;SDS011;1736;52.068;6.968;2022-09-09T03:22:43;15.27;;;10.37;;
3443;SDS011;1736;52.068;6.968;2022-09-09T03:25:10;9.97;;;8.40;;
3443;SDS011;1736;52.068;6.968;2022-09-09T03:27:36;14.33;;;9.63;;
3443;SDS011;1736;52.068;6.968;2022-09-09T03:30:03;13.40;;;9.50;;
3443;SDS011;1736;52.068;6.968;2022-09-09T03:32:30;16.27;;;9.70;;
3443;SDS011;1736;52.068;6.968;2022-09-09T03:34:57;15.90;;;9.60;;
3443;SDS011;1736;52.068;6.968;2022-09-09T03:37:25;14.20;;;9.67;;
3443;SDS011;1736;52.068;6.968;2022-09-09T03:39:51;12.57;;;9.27;;
3443;SDS011;1736;52.068;6.968;2022-09-09T03:42:19;16.57;;;9.23;;
3443;SDS011;1736;52.068;6.968;2022-09-09T03:44:52;16.50;;;10.00;;
3443;SDS011;1736;52.068;6.968;2022-09-09T03:47:20;14.83;;;9.70;;
3443;SDS011;1736;52.068;6.968;2022-09-09T03:49:47;14.50;;;9.97;;
3443;SDS011;1736;52.068;6.968;2022-09-09T03:52:14;16.50;;;9.53;;
3443;SDS011;1736;52.068;6.968;2022-09-09T03:54:42;12.80;;;9.30;;
3443;SDS011;1736;52.068;6.968;2022-09-09T03:57:09;14.27;;;9.10;;
3443;SDS011;1736;52.068;6.968;2022-09-09T03:59:36;20.63;;;10.13;;
3443;SDS011;1736;52.068;6.968;2022-09-09T04:02:03;13.20;;;8.50;;
3443;SDS011;1736;52.068;6.968;2022-09-09T04:04:30;16.30;;;9.50;;
3443;SDS011;1736;52.068;6.968;2022-09-09T04:06:57;16.17;;;9.20;;
3443;SDS011;1736;52.068;6.968;2022-09-09T04:09:23;13.53;;;9.50;;
3443;SDS011;1736;52.068;6.968;2022-09-09T04:11:51;15.30;;;8.30;;
3443;SDS011;1736;52.068;6.968;2022-09-09T04:14:18;12.03;;;7.90;;
3443;SDS011;1736;52.068;6.968;2022-09-09T04:16:45;11.90;;;9.10;;
3443;SDS011;1736;52.068;6.968;2022-09-09T04:19:12;11.83;;;9.07;;
3443;SDS011;1736;52.068;6.968;2022-09-09T04:21:39;13.30;;;9.20;;
3443;SDS011;1736;52.068;6.968;2022-09-09T04:24:06;11.00;;;8.90;;
3443;SDS011;1736;52.068;6.968;2022-09-09T04:26:33;15.27;;;8.30;;
3443;SDS011;1736;52.068;6.968;2022-09-09T04:29:01;14.77;;;9.13;;
3443;SDS011;1736;52.068;6.968;2022-09-09T04:31:28;13.80;;;8.10;;
3443;SDS011;1736;52.068;6.968;2022-09-09T04:33:55;11.43;;;8.03;;
3443;SDS011;1736;52.068;6.968;2022-09-09T04:36:22;14.03;;;9.33;;
3443;SDS011;1736;52.068;6.968;2022-09-09T04:38:49;13.33;;;8.70;;
3443;SDS011;1736;52.068;6.968;2022-09-09T04:41:15;10.97;;;8.20;;
3443;SDS011;1736;52.068;6.968;2022-09-09T04:43:42;15.20;;;8.87;;
3443;SDS011;1736;52.068;6.968;2022-09-09T04:46:10;11.60;;;8.23;;
3443;SDS011;1736;52.068;6.968;2022-09-09T04:48:37;15.53;;;8.80;;
3443;SDS011;1736;52.068;6.968;2022-09-09T04:51:04;13.73;;;7.83;;
3443;SDS011;1736;52.068;6.968;2022-09-09T04:53:32;9.93;;;7.67;;
3443;SDS011;1736;52.068;6.968;2022-09-09T04:56:03;13.27;;;7.67;;
3443;SDS011;1736;52.068;6.968;2022-09-09T04:58:31;10.17;;;7.73;;
3443;SDS011;1736;52.068;6.968;2022-09-09T05:01:05;12.27;;;7.43;;
3443;SDS011;1736;52.068;6.968;2022-09-09T05:03:34;13.40;;;7.80;;
3443;SDS011;1736;52.068;6.968;2022-09-09T05:06:02;11.63;;;7.53;;
3443;SDS011;1736;52.068;6.968;2022-09-09T05:08:30;14.30;;;7.83;;
3443;SDS011;1736;52.068;6.968;2022-09-09T05:10:57;10.93;;;7.07;;
3443;SDS011;1736;52.068;6.968;2022-09-09T05:13:24;13.53;;;7.33;;
3443;SDS011;1736;52.068;6.968;2022-09-09T05:15:51;12.00;;;7.47;;
3443;SDS011;1736;52.068;6.968;2022-09-09T05:18:18;15.10;;;7.90;;
3443;SDS011;1736;52.068;6.968;2022-09-09T05:20:46;11.80;;;6.97;;
3443;SDS011;1736;52.068;6.968;2022-09-09T05:23:13;14.93;;;7.53;;
3443;SDS011;1736;52.068;6.968;2022-09-09T05:25:39;9.77;;;7.60;;
3443;SDS011;1736;52.068;6.968;2022-09-09T05:28:06;12.87;;;7.33;;
3443;SDS011;1736;52.068;6.968;2022-09-09T05:30:33;9.67;;;6.63;;
3443;SDS011;1736;52.068;6.968;2022-09-09T05:33:00;16.20;;;7.70;;
3443;SDS011;1736;52.068;6.968;2022-09-09T05:35:26;11.47;;;6.90;;
3443;SDS011;1736;52.068;6.968;2022-09-09T05:37:54;9.67;;;6.60;;
3443;SDS011;1736;52.068;6.968;2022-09-09T05:40:25;6.53;;;5.70;;
3443;SDS011;1736;52.068;6.968;2022-09-09T05:42:52;9.60;;;6.20;;
3443;SDS011;1736;52.068;6.968;2022-09-09T05:45:18;8.33;;;5.90;;
3443;SDS011;1736;52.068;6.968;2022-09-09T05:47:45;9.23;;;5.73;;
3443;SDS011;1736;52.068;6.968;2022-09-09T05:50:18;9.30;;;5.80;;
3443;SDS011;1736;52.068;6.968;2022-09-09T05:52:45;9.50;;;5.30;;
3443;SDS011;1736;52.068;6.968;2022-09-09T05:55:14;10.00;;;5.70;;
3443;SDS011;1736;52.068;6.968;2022-09-09T05:57:41;9.43;;;5.70;;
3443;SDS011;1736;52.068;6.968;2022-09-09T06:00:08;7.13;;;4.70;;
3443;SDS011;1736;52.068;6.968;2022-09-09T06:02:35;6.30;;;4.50;;
3443;SDS011;1736;52.068;6.968;2022-09-09T06:05:04;6.50;;;4.30;;
3443;SDS011;1736;52.068;6.968;2022-09-09T06:07:31;8.00;;;4.33;;
3443;SDS011;1736;52.068;6.968;2022-09-09T06:09:57;8.20;;;4.50;;
3443;SDS011;1736;52.068;6.968;2022-09-09T06:12:26;4.37;;;3.37;;
3443;SDS011;1736;52.068;6.968;2022-09-09T06:14:53;7.97;;;3.67;;
3443;SDS011;1736;52.068;6.968;2022-09-09T06:17:19;6.77;;;3.97;;
3443;SDS011;1736;52.068;6.968;2022-09-09T06:19:46;7.07;;;4.10;;
3443;SDS011;1736;52.068;6.968;2022-09-09T06:22:12;5.70;;;3.70;;
3443;SDS011;1736;52.068;6.968;2022-09-09T06:24:39;7.50;;;4.00;;
3443;SDS011;1736;52.068;6.968;2022-09-09T06:27:05;13.00;;;4.47;;
3443;SDS011;1736;52.068;6.968;2022-09-09T06:29:33;5.70;;;3.77;;
3443;SDS011;1736;52.068;6.968;2022-09-09T06:32:00;9.93;;;3.40;;
3443;SDS011;1736;52.068;6.968;2022-09-09T06:34:27;9.13;;;4.00;;
3443;SDS011;1736;52.068;6.968;2022-09-09T06:36:54;6.60;;;3.90;;
3443;SDS011;1736;52.068;6.968;2022-09-09T06:39:22;5.80;;;3.60;;
3443;SDS011;1736;52.068;6.968;2022-09-09T06:41:49;6.63;;;3.73;;
3443;SDS011;1736;52.068;6.968;2022-09-09T06:44:18;5.30;;;3.40;;
3443;SDS011;1736;52.068;6.968;2022-09-09T06:46:46;5.60;;;3.00;;
3443;SDS011;1736;52.068;6.968;2022-09-09T06:49:13;13.07;;;3.40;;
3443;SDS011;1736;52.068;6.968;2022-09-09T06:51:40;13.13;;;3.40;;
3443;SDS011;1736;52.068;6.968;2022-09-09T06:54:08;4.10;;;3.30;;
3443;SDS011;1736;52.068;6.968;2022-09-09T06:56:35;9.20;;;4.10;;
3443;SDS011;1736;52.068;6.968;2022-09-09T06:59:05;5.10;;;3.30;;
3443;SDS011;1736;52.068;6.968;2022-09-09T07:01:40;4.60;;;2.90;;
3443;SDS011;1736;52.068;6.968;2022-09-09T07:04:10;8.00;;;3.00;;
3443;SDS011;1736;52.068;6.968;2022-09-09T07:06:39;8.80;;;3.30;;
3443;SDS011;1736;52.068;6.968;2022-09-09T07:09:08;6.23;;;2.87;;
3443;SDS011;1736;52.068;6.968;2022-09-09T07:11:37;4.80;;;2.80;;
3443;SDS011;1736;52.068;6.968;2022-09-09T07:14:04;6.67;;;2.90;;
3443;SDS011;1736;52.068;6.968;2022-09-09T07:16:32;11.23;;;2.83;;
3443;SDS011;1736;52.068;6.968;2022-09-09T07:19:02;11.17;;;3.27;;
3443;SDS011;1736;52.068;6.968;2022-09-09T07:21:30;7.80;;;3.27;;
3443;SDS011;1736;52.068;6.968;2022-09-09T07:23:58;3.47;;;2.70;;
3443;SDS011;1736;52.068;6.968;2022-09-09T07:26:26;4.30;;;3.30;;
3443;SDS011;1736;52.068;6.968;2022-09-09T07:28:54;5.27;;;2.77;;
3443;SDS011;1736;52.068;6.968;2022-09-09T07:31:22;4.17;;;2.30;;
3443;SDS011;1736;52.068;6.968;2022-09-09T07:33:51;4.60;;;2.17;;
3443;SDS011;1736;52.068;6.968;2022-09-09T07:36:18;7.67;;;3.03;;
3443;SDS011;1736;52.068;6.968;2022-09-09T07:38:48;6.23;;;2.70;;
3443;SDS011;1736;52.068;6.968;2022-09-09T07:41:18;5.07;;;2.67;;
3443;SDS011;1736;52.068;6.968;2022-09-09T07:43:46;8.00;;;3.00;;
3443;SDS011;1736;52.068;6.968;2022-09-09T07:46:14;5.93;;;2.80;;
3443;SDS011;1736;52.068;6.968;2022-09-09T07:48:44;6.83;;;2.90;;
3443;SDS011;1736;52.068;6.968;2022-09-09T07:51:11;9.23;;;2.50;;
3443;SDS011;1736;52.068;6.968;2022-09-09T07:53:42;10.33;;;2.77;;
3443;SDS011;1736;52.068;6.968;2022-09-09T07:56:11;4.20;;;3.13;;
3443;SDS011;1736;52.068;6.968;2022-09-09T07:58:39;4.57;;;2.50;;
3443;SDS011;1736;52.068;6.968;2022-09-09T08:01:07;3.60;;;2.53;;
3443;SDS011;1736;52.068;6.968;2022-09-09T08:03:34;5.30;;;2.80;;
3443;SDS011;1736;52.068;6.968;2022-09-09T08:06:02;4.73;;;2.63;;
3443;SDS011;1736;52.068;6.968;2022-09-09T08:08:29;6.33;;;2.37;;
3443;SDS011;1736;52.068;6.968;2022-09-09T08:11:03;6.93;;;2.70;;
3443;SDS011;1736;52.068;6.968;2022-09-09T08:13:33;12.37;;;2.80;;
3443;SDS011;1736;52.068;6.968;2022-09-09T08:16:04;8.10;;;3.00;;
3443;SDS011;1736;52.068;6.968;2022-09-09T08:18:33;4.33;;;2.30;;
3443;SDS011;1736;52.068;6.968;2022-09-09T08:21:04;9.10;;;3.03;;
3443;SDS011;1736;52.068;6.968;2022-09-09T08:23:33;6.70;;;2.50;;
3443;SDS011;1736;52.068;6.968;2022-09-09T08:26:03;6.60;;;2.83;;
3443;SDS011;1736;52.068;6.968;2022-09-09T08:28:30;6.77;;;2.50;;
3443;SDS011;1736;52.068;6.968;2022-09-09T08:31:05;3.93;;;2.27;;
3443;SDS011;1736;52.068;6.968;2022-09-09T08:33:36;3.40;;;2.40;;
3443;SDS011;1736;52.068;6.968;2022-09-09T08:36:04;5.10;;;2.40;;
3443;SDS011;1736;52.068;6.968;2022-09-09T08:38:33;7.10;;;2.33;;
3443;SDS011;1736;52.068;6.968;2022-09-09T08:41:04;4.80;;;2.37;;
3443;SDS011;1736;52.068;6.968;2022-09-09T08:43:43;6.53;;;2.27;;
3443;SDS011;1736;52.068;6.968;2022-09-09T08:46:15;5.33;;;2.63;;
3443;SDS011;1736;52.068;6.968;2022-09-09T08:48:52;4.77;;;2.00;;
3443;SDS011;1736;52.068;6.968;2022-09-09T08:51:23;9.03;;;3.17;;
3443;SDS011;1736;52.068;6.968;2022-09-09T08:53:54;4.37;;;2.00;;
3443;SDS011;1736;52.068;6.968;2022-09-09T08:56:25;9.00;;;2.67;;
3443;SDS011;1736;52.068;6.968;2022-09-09T08:58:54;8.03;;;1.93;;
3443;SDS011;1736;52.068;6.968;2022-09-09T09:01:33;5.63;;;2.30;;
3443;SDS011;1736;52.068;6.968;2022-09-09T09:04:13;5.60;;;2.00;;
3443;SDS011;1736;52.068;6.968;2022-09-09T09:06:54;10.33;;;2.60;;
3443;SDS011;1736;52.068;6.968;2022-09-09T09:09:31;11.07;;;1.93;;
3443;SDS011;1736;52.068;6.968;2022-09-09T09:12:10;4.27;;;2.50;;
3443;SDS011;1736;52.068;6.968;2022-09-09T09:14:41;6.07;;;2.10;;
3443;SDS011;1736;52.068;6.968;2022-09-09T09:17:12;4.20;;;2.27;;
3443;SDS011;1736;52.068;6.968;2022-09-09T09:19:41;7.60;;;1.70;;
3443;SDS011;1736;52.068;6.968;2022-09-09T09:22:16;7.57;;;2.60;;
3443;SDS011;1736;52.068;6.968;2022-09-09T09:24:49;9.03;;;2.50;;
3443;SDS011;1736;52.068;6.968;2022-09-09T09:27:21;8.87;;;2.23;;
3443;SDS011;1736;52.068;6.968;2022-09-09T09:29:56;4.43;;;2.27;;
3443;SDS011;1736;52.068;6.968;2022-09-09T09:32:27;3.43;;;1.97;;
3443;SDS011;1736;52.068;6.968;2022-09-09T09:34:57;3.37;;;2.03;;
3443;SDS011;1736;52.068;6.968;2022-09-09T09:37:26;3.87;;;2.13;;
3443;SDS011;1736;52.068;6.968;2022-09-09T09:39:56;5.50;;;1.83;;
3443;SDS011;1736;52.068;6.968;2022-09-09T09:42:34;6.40;;;2.10;;
3443;SDS011;1736;52.068;6.968;2022-09-09T09:45:07;3.73;;;1.80;;
3443;SDS011;1736;52.068;6.968;2022-09-09T09:47:36;11.27;;;2.27;;
3443;SDS011;1736;52.068;6.968;2022-09-09T09:50:15;6.53;;;2.30;;
3443;SDS011;1736;52.068;6.968;2022-09-09T09:52:52;6.03;;;1.97;;
3443;SDS011;1736;52.068;6.968;2022-09-09T09:55:20;2.63;;;2.13;;
3443;SDS011;1736;52.068;6.968;2022-09-09T09:57:47;2.00;;;1.73;;
3443;SDS011;1736;52.068;6.968;2022-09-09T10:00:15;2.60;;;1.90;;
3443;SDS011;1736;52.068;6.968;2022-09-09T10:02:45;6.00;;;1.83;;
3443;SDS011;1736;52.068;6.968;2022-09-09T10:05:13;3.30;;;1.50;;
3443;SDS011;1736;52.068;6.968;2022-09-09T10:07:41;3.30;;;1.60;;
3443;SDS011;1736;52.068;6.968;2022-09-09T10:10:12;4.87;;;2.27;;
3443;SDS011;1736;52.068;6.968;2022-09-09T10:12:48;3.13;;;1.53;;
3443;SDS011;1736;52.068;6.968;2022-09-09T10:15:30;6.43;;;1.60;;
3443;SDS011;1736;52.068;6.968;2022-09-09T10:18:08;3.63;;;1.80;;
3443;SDS011;1736;52.068;6.968;2022-09-09T10:20:48;3.20;;;1.63;;
3443;SDS011;1736;52.068;6.968;2022-09-09T10:23:24;8.87;;;2.47;;
3443;SDS011;1736;52.068;6.968;2022-09-09T10:26:16;5.60;;;2.00;;
3443;SDS011;1736;52.068;6.968;2022-09-09T10:28:59;5.63;;;1.70;;
3443;SDS011;1736;52.068;6.968;2022-09-09T10:31:40;3.83;;;1.97;;
3443;SDS011;1736;52.068;6.968;2022-09-09T10:34:20;2.37;;;1.87;;
3443;SDS011;1736;52.068;6.968;2022-09-09T10:37:01;3.80;;;1.90;;
3443;SDS011;1736;52.068;6.968;2022-09-09T10:39:38;5.10;;;1.80;;
3443;SDS011;1736;52.068;6.968;2022-09-09T10:42:06;4.00;;;1.70;;
3443;SDS011;1736;52.068;6.968;2022-09-09T10:44:39;1.97;;;1.53;;
3443;SDS011;1736;52.068;6.968;2022-09-09T10:47:28;10.07;;;1.97;;
3443;SDS011;1736;52.068;6.968;2022-09-09T10:50:14;4.10;;;1.83;;
3443;SDS011;1736;52.068;6.968;2022-09-09T10:52:51;5.50;;;1.70;;
3443;SDS011;1736;52.068;6.968;2022-09-09T10:55:27;3.00;;;1.50;;
3443;SDS011;1736;52.068;6.968;2022-09-09T10:58:02;5.10;;;1.70;;
3443;SDS011;1736;52.068;6.968;2022-09-09T11:00:34;3.20;;;1.60;;
3443;SDS011;1736;52.068;6.968;2022-09-09T11:03:04;5.17;;;1.93;;
3443;SDS011;1736;52.068;6.968;2022-09-09T11:05:35;4.93;;;1.60;;
3443;SDS011;1736;52.068;6.968;2022-09-09T11:08:10;2.67;;;1.60;;
3443;SDS011;1736;52.068;6.968;2022-09-09T11:10:42;5.77;;;1.80;;
3443;SDS011;1736;52.068;6.968;2022-09-09T11:13:14;5.20;;;3.33;;
3443;SDS011;1736;52.068;6.968;2022-09-09T11:15:49;1.87;;;1.30;;
3443;SDS011;1736;52.068;6.968;2022-09-09T11:18:19;5.70;;;1.47;;
3443;SDS011;1736;52.068;6.968;2022-09-09T11:20:48;4.30;;;1.73;;
3443;SDS011;1736;52.068;6.968;2022-09-09T11:23:18;5.10;;;1.57;;
3443;SDS011;1736;52.068;6.968;2022-09-09T11:25:53;4.47;;;1.73;;
3443;SDS011;1736;52.068;6.968;2022-09-09T11:28:27;3.57;;;1.37;;
3443;SDS011;1736;52.068;6.968;2022-09-09T11:33:58;3.50;;;1.73;;
3443;SDS011;1736;52.068;6.968;2022-09-09T11:36:41;4.33;;;1.60;;
3443;SDS011;1736;52.068;6.968;2022-09-09T11:39:33;2.87;;;1.60;;
3443;SDS011;1736;52.068;6.968;2022-09-09T11:42:15;2.70;;;1.50;;
3443;SDS011;1736;52.068;6.968;2022-09-09T11:44:44;2.47;;;1.53;;
3443;SDS011;1736;52.068;6.968;2022-09-09T11:47:22;6.70;;;2.17;;
3443;SDS011;1736;52.068;6.968;2022-09-09T11:49:54;3.63;;;1.70;;
3443;SDS011;1736;52.068;6.968;2022-09-09T11:52:23;4.30;;;1.77;;
3443;SDS011;1736;52.068;6.968;2022-09-09T11:54:51;3.23;;;1.60;;
3443;SDS011;1736;52.068;6.968;2022-09-09T11:57:24;2.40;;;1.50;;
3443;SDS011;1736;52.068;6.968;2022-09-09T11:59:56;3.50;;;1.60;;
3443;SDS011;1736;52.068;6.968;2022-09-09T12:02:25;4.10;;;1.73;;
3443;SDS011;1736;52.068;6.968;2022-09-09T12:04:56;1.90;;;1.33;;
3443;SDS011;1736;52.068;6.968;2022-09-09T12:07:35;2.00;;;1.50;;
3443;SDS011;1736;52.068;6.968;2022-09-09T12:10:19;4.63;;;1.70;;
3443;SDS011;1736;52.068;6.968;2022-09-09T12:12:48;3.10;;;1.43;;
3443;SDS011;1736;52.068;6.968;2022-09-09T12:15:19;4.60;;;1.77;;
3443;SDS011;1736;52.068;6.968;2022-09-09T12:17:49;4.03;;;1.70;;
3443;SDS011;1736;52.068;6.968;2022-09-09T12:20:18;2.33;;;1.60;;
3443;SDS011;1736;52.068;6.968;2022-09-09T12:22:53;2.60;;;1.33;;
3443;SDS011;1736;52.068;6.968;2022-09-09T12:28:50;2.60;;;1.13;;
3443;SDS011;1736;52.068;6.968;2022-09-09T12:31:25;3.07;;;1.63;;
3443;SDS011;1736;52.068;6.968;2022-09-09T12:34:02;3.57;;;1.87;;
3443;SDS011;1736;52.068;6.968;2022-09-09T12:36:35;3.17;;;1.40;;
3443;SDS011;1736;52.068;6.968;2022-09-09T12:39:12;2.40;;;1.30;;
3443;SDS011;1736;52.068;6.968;2022-09-09T12:41:54;5.60;;;1.30;;
3443;SDS011;1736;52.068;6.968;2022-09-09T12:44:21;2.30;;;1.20;;
3443;SDS011;1736;52.068;6.968;2022-09-09T12:46:49;2.90;;;1.70;;
3443;SDS011;1736;52.068;6.968;2022-09-09T12:49:24;2.43;;;1.43;;
3443;SDS011;1736;52.068;6.968;2022-09-09T12:51:54;3.70;;;2.10;;
3443;SDS011;1736;52.068;6.968;2022-09-09T12:54:23;1.90;;;1.30;;
3443;SDS011;1736;52.068;6.968;2022-09-09T12:56:56;5.73;;;1.80;;
3443;SDS011;1736;52.068;6.968;2022-09-09T12:59:24;4.63;;;1.50;;
3443;SDS011;1736;52.068;6.968;2022-09-09T13:01:55;2.50;;;1.30;;
3443;SDS011;1736;52.068;6.968;2022-09-09T13:04:22;1.97;;;1.40;;
3443;SDS011;1736;52.068;6.968;2022-09-09T13:06:49;3.87;;;1.73;;
3443;SDS011;1736;52.068;6.968;2022-09-09T13:09:17;4.43;;;2.00;;
3443;SDS011;1736;52.068;6.968;2022-09-09T13:11:46;2.50;;;1.60;;
3443;SDS011;1736;52.068;6.968;2022-09-09T13:14:17;3.20;;;1.70;;
3443;SDS011;1736;52.068;6.968;2022-09-09T13:16:54;6.10;;;2.27;;
3443;SDS011;1736;52.068;6.968;2022-09-09T13:19:22;2.43;;;1.70;;
3443;SDS011;1736;52.068;6.968;2022-09-09T13:21:50;6.90;;;1.90;;
3443;SDS011;1736;52.068;6.968;2022-09-09T13:24:29;4.90;;;1.90;;
3443;SDS011;1736;52.068;6.968;2022-09-09T13:27:00;4.53;;;1.70;;
3443;SDS011;1736;52.068;6.968;2022-09-09T13:29:28;8.23;;;1.83;;
3443;SDS011;1736;52.068;6.968;2022-09-09T13:32:03;5.40;;;1.80;;
3443;SDS011;1736;52.068;6.968;2022-09-09T13:34:31;4.33;;;2.10;;
3443;SDS011;1736;52.068;6.968;2022-09-09T13:37:00;8.90;;;1.77;;
3443;SDS011;1736;52.068;6.968;2022-09-09T13:39:30;8.03;;;2.27;;
3443;SDS011;1736;52.068;6.968;2022-09-09T13:42:00;2.23;;;1.93;;
3443;SDS011;1736;52.068;6.968;2022-09-09T13:44:29;7.47;;;2.57;;
3443;SDS011;1736;52.068;6.968;2022-09-09T13:47:16;9.10;;;2.20;;
3443;SDS011;1736;52.068;6.968;2022-09-09T13:49:45;4.83;;;2.23;;
3443;SDS011;1736;52.068;6.968;2022-09-09T13:52:12;5.43;;;2.30;;
3443;SDS011;1736;52.068;6.968;2022-09-09T13:54:40;3.47;;;2.13;;
3443;SDS011;1736;52.068;6.968;2022-09-09T13:57:15;5.60;;;1.60;;
3443;SDS011;1736;52.068;6.968;2022-09-09T13:59:43;2.50;;;2.00;;
3443;SDS011;1736;52.068;6.968;2022-09-09T14:02:09;6.90;;;3.73;;
3443;SDS011;1736;52.068;6.968;2022-09-09T14:04:36;2.10;;;1.90;;
3443;SDS011;1736;52.068;6.968;2022-09-09T14:07:03;4.57;;;2.10;;
3443;SDS011;1736;52.068;6.968;2022-09-09T14:09:29;3.83;;;1.80;;
3443;SDS011;1736;52.068;6.968;2022-09-09T14:11:56;2.93;;;2.20;;
3443;SDS011;1736;52.068;6.968;2022-09-09T14:14:24;3.70;;;2.20;;
3443;SDS011;1736;52.068;6.968;2022-09-09T14:16:51;3.97;;;2.40;;
3443;SDS011;1736;52.068;6.968;2022-09-09T14:19:17;2.73;;;2.40;;
3443;SDS011;1736;52.068;6.968;2022-09-09T14:21:44;3.17;;;2.33;;
3443;SDS011;1736;52.068;6.968;2022-09-09T14:24:11;2.80;;;2.10;;
3443;SDS011;1736;52.068;6.968;2022-09-09T14:26:39;4.87;;;2.50;;
3443;SDS011;1736;52.068;6.968;2022-09-09T14:29:05;6.50;;;2.80;;
3443;SDS011;1736;52.068;6.968;2022-09-09T14:31:33;8.47;;;2.40;;
3443;SDS011;1736;52.068;6.968;2022-09-09T14:34:00;5.63;;;2.17;;
3443;SDS011;1736;52.068;6.968;2022-09-09T14:36:26;3.27;;;2.43;;
3443;SDS011;1736;52.068;6.968;2022-09-09T14:38:53;4.67;;;2.10;;
3443;SDS011;1736;52.068;6.968;2022-09-09T14:41:19;5.83;;;2.90;;
3443;SDS011;1736;52.068;6.968;2022-09-09T14:43:47;4.30;;;2.40;;
3443;SDS011;1736;52.068;6.968;2022-09-09T14:46:15;4.10;;;2.30;;
3443;SDS011;1736;52.068;6.968;2022-09-09T14:48:44;2.50;;;2.00;;
3443;SDS011;1736;52.068;6.968;2022-09-09T14:51:14;5.57;;;2.33;;
3443;SDS011;1736;52.068;6.968;2022-09-09T14:53:43;5.00;;;2.30;;
3443;SDS011;1736;52.068;6.968;2022-09-09T14:56:11;4.10;;;2.50;;
3443;SDS011;1736;52.068;6.968;2022-09-09T14:58:38;3.30;;;2.10;;
3443;SDS011;1736;52.068;6.968;2022-09-09T15:01:06;6.00;;;2.30;;
3443;SDS011;1736;52.068;6.968;2022-09-09T15:03:34;3.07;;;2.37;;
3443;SDS011;1736;52.068;6.968;2022-09-09T15:06:06;5.67;;;2.47;;
3443;SDS011;1736;52.068;6.968;2022-09-09T15:08:35;4.00;;;2.80;;
3443;SDS011;1736;52.068;6.968;2022-09-09T15:11:02;3.63;;;2.53;;
3443;SDS011;1736;52.068;6.968;2022-09-09T15:13:30;3.33;;;2.60;;
3443;SDS011;1736;52.068;6.968;2022-09-09T15:16:03;3.50;;;2.50;;
3443;SDS011;1736;52.068;6.968;2022-09-09T15:18:30;2.50;;;2.20;;
3443;SDS011;1736;52.068;6.968;2022-09-09T15:20:57;3.20;;;1.90;;
3443;SDS011;1736;52.068;6.968;2022-09-09T15:23:32;5.10;;;2.00;;
3443;SDS011;1736;52.068;6.968;2022-09-09T15:25:59;3.67;;;2.00;;
3443;SDS011;1736;52.068;6.968;2022-09-09T15:28:26;3.30;;;2.20;;
3443;SDS011;1736;52.068;6.968;2022-09-09T15:30:53;2.40;;;2.10;;
3443;SDS011;1736;52.068;6.968;2022-09-09T15:33:22;4.03;;;2.37;;
3443;SDS011;1736;52.068;6.968;2022-09-09T15:35:48;2.97;;;2.10;;
3443;SDS011;1736;52.068;6.968;2022-09-09T15:38:16;3.83;;;1.87;;
3443;SDS011;1736;52.068;6.968;2022-09-09T15:40:45;3.80;;;1.90;;
3443;SDS011;1736;52.068;6.968;2022-09-09T15:43:20;7.30;;;3.20;;
3443;SDS011;1736;52.068;6.968;2022-09-09T15:45:47;4.67;;;1.90;;
3443;SDS011;1736;52.068;6.968;2022-09-09T15:48:20;4.70;;;2.20;;